Richland Center, WI (53581)

9:14 PM CDT on July 22, 2017 (GMT -0500)
Ash Creek | | Change Station
Active Advisory: Flood Warning

Elev 732 ft 43.33 °N, 90.39 °W | Updated 4 minutes ago

Clear
Clear
74.0 °F
Feels Like 71 °F
N
0.0
Wind Variable Wind from West
Gusts 0.0 mph

Today
High -- | Low -- °F
--% Chance of Precip.
Yesterday
High -- | Low -- °F
Precip. -- in
Pressure 29.78 in
Visibility 10.0 miles
Clouds Clear
Heat Index 71 °F
Dew Point 72 °F
Humidity 94%
Rainfall 0.00 in
Snow Depth Not available.
5:41 AM 8:33 PM
Waning Crescent, 0% visible
METAR KLNR 230156Z AUTO 03003KT 10SM CLR 24/22 A2981 RMK AO2 SLP085 T02390222
Pressure 29.78 in
Visibility 10.0 miles
Clouds Clear
Heat Index 71 °F
Dew Point 72 °F
Humidity 94%
Rainfall 0.00 in
Snow Depth Not available.
5:41 AM 8:33 PM
Waning Crescent, 0% visible
METAR KLNR 230156Z AUTO 03003KT 10SM CLR 24/22 A2981 RMK AO2 SLP085 T02390222

Get Your Daily Forecast Email!

Thanks for signing up!

Be on the lookout for a verification email in your inbox.

You'll start receiving severe weather alerts in your inbox..

×

10-Day Weather Forecast

Almanac

Astronomy

Jul. 22, 2017 Rise Set
Actual Time
Civil Twilight
Nautical Twilight
Astronomical Twilight
Moon
Length of Visible Light
Length of Day
Tomorrow will be .
, % of the Moon is Illuminated

Today's Extremes

State Highs State Lows

Community

WunderPhotos

Category 6

Welcome to Category 6. This is the collective home for Weather Underground's featured writeups by Dr. Jeff Masters (right), Bob Henson (left), Chris Burt, and other regular contributors.

Nearby

Air Quality

  Air Quality AQ Index Pollutant
Not available.

Snow Depth

Station Depth Elevation

Earthquake Activity

City Distance Mag. Time & Date
Minimum magnitude displayed is 2.5.

Coastal Water Temperatures

Place Temperature

Stations

Nearby Weather Stations

Station Location Temp. Windchill Dew Point Humidity Wind Precip. Elev Updated Type
                   

Watches & Warnings

Flood Warning
Issued: 9:02 PM CDT Jul. 22, 2017 – National Weather Service

The Flood Warning continues for
the Kickapoo river at Viola.
* Until Tuesday afternoon... or until the warning is cancelled.
* At 3:20 PM Saturday the stage was 16.7 feet.
* Flood stage is 14.0 feet.
* Moderate flooding is occurring and moderate flooding is forecast.
* Forecast... the river will continue to fall... dropping below flood
stage by Monday.
* Impact... at 16.5 feet... Highway 56 just east of Viola is closed due
to flooding.


Lat... Lon 4353 9064 4347 9066 4346 9072 4348 9073 4354 9070